Mitchellville, TN (37119)

12:20 PM CDT on August 28, 2014 (GMT -0500)
Friendship Rd.- NE Cross Plains | Change Station
CLOSE
Current Station
Personal Weather Station
Location: Cross Plains, TN
Elevation: 757 ft
Nearby Weather Stations

Elev 757 ft 36.57 °N, 86.67 °W | Updated 2 seconds ago

Partly Cloudy
Partly Cloudy
87.9 °F
Feels Like 97 °F
N
4.0
Wind Variable Wind from WNW
Gusts 5.0 mph

Today
High -- | Low -- °F
--% Chance of Precip.
Yesterday
High -- | Low -- °F
Precip. -- in
6:14 AM 7:19 PM
Waxing Crescent, 9% visible
Pressure 30.03 in
Visibility 10.0 miles
Clouds Scattered Clouds 4300 ft
Heat Index 97 °F
Dew Point 75 °F
Humidity 65%
Rainfall 0.00 in
Snow Depth Not available.
UV 8 out of 12
Pollen 10.40 out of 12
Ozone Good
PM2.5 Moderate
Flu Activity Not available.
METAR KBWG 281653Z AUTO 00000KT 10SM SCT043 31/21 A3005 RMK AO2 SLP168 T03110211

More Conditions Fewer Conditions

Pressure 30.03 in
Visibility 10.0 miles
Clouds Scattered Clouds 4300 ft
Heat Index 97 °F
Dew Point 75 °F
Humidity 65%
Rainfall 0.00 in
Snow Depth Not available.
UV 8 out of 12
Pollen 10.40 out of 12
Ozone Good
PM2.5 Moderate
Flu Activity Not available.
METAR KBWG 281653Z AUTO 00000KT 10SM SCT043 31/21 A3005 RMK AO2 SLP168 T03110211

More Conditions Fewer Conditions

10-Day Weather Forecast

Almanac

Astronomy

Aug. 28, 2014 Rise Set
Actual Time 6:14 AM CDT 7:19 PM CDT
Civil Twilight 5:47 AM CDT 7:46 PM CDT
Nautical Twilight 5:15 AM CDT 8:18 PM CDT
Astronomical Twilight 4:42 AM CDT 8:50 PM CDT
Moon 9:00 AM CDT 8:50 PM CDT
Length of Visible Light 13h 59m
Length of Day
13h 05m
Tomorrow will be 2m 12s shorter.
Waxing Crescent, 9% of the Moon is Illuminated
Today
Waxing Crescent
Sep 2
First Quarter
Sep 8
Full
Sep 15
Last Quarter
Sep 24
New

Today's Extremes

State Highs State Lows

Community

WunderPhotos

Upload Photos

1,748,017 photos uploaded!

Nearby

Air Quality

  Air Quality AQ Index Pollutant
Yesterday Moderate
PM2.5
Yesterday Good
OZONE
Current Moderate
PM2.5
Current Good
OZONE
Thursday Moderate
OZONE
Thursday Moderate
PM2.5
Friday Moderate
OZONE
Friday Moderate
PM2.5

Snow Depth

Station Depth Elevation
No new snow has been reported.

Earthquake Activity

City Distance Mag. Time & Date
No recent earthquake activity has been reported nearby.
Minimum magnitude displayed is 2.5.

Coastal Water Temperatures

Place Temperature
No Stations Reporting

Nearby Weather Stations